sensor_id;sensor_type;location;lat;lon;timestamp;P1;durP1;ratioP1;P2;durP2;ratioP2
4043;SDS011;2036;51.578;7.108;2023-10-08T13:48:13;7.20;;;1.20;;
4043;SDS011;2036;51.578;7.108;2023-10-08T13:50:39;4.63;;;1.77;;
4043;SDS011;2036;51.578;7.108;2023-10-08T13:53:05;5.60;;;1.23;;
4043;SDS011;2036;51.578;7.108;2023-10-08T13:55:31;3.03;;;1.10;;
4043;SDS011;2036;51.578;7.108;2023-10-08T13:57:57;2.97;;;1.27;;
4043;SDS011;2036;51.578;7.108;2023-10-08T14:00:23;3.37;;;1.00;;
4043;SDS011;2036;51.578;7.108;2023-10-08T14:02:51;4.93;;;1.23;;
4043;SDS011;2036;51.578;7.108;2023-10-08T14:05:18;4.10;;;1.40;;
4043;SDS011;2036;51.578;7.108;2023-10-08T14:07:49;5.10;;;1.40;;
4043;SDS011;2036;51.578;7.108;2023-10-08T14:10:18;5.10;;;1.03;;
4043;SDS011;2036;51.578;7.108;2023-10-08T14:12:46;3.43;;;1.40;;
4043;SDS011;2036;51.578;7.108;2023-10-08T14:15:18;4.80;;;1.70;;
4043;SDS011;2036;51.578;7.108;2023-10-08T14:17:44;8.73;;;1.70;;
4043;SDS011;2036;51.578;7.108;2023-10-08T14:20:14;6.30;;;1.47;;
4043;SDS011;2036;51.578;7.108;2023-10-08T14:22:46;10.07;;;2.50;;
4043;SDS011;2036;51.578;7.108;2023-10-08T14:25:22;6.17;;;1.63;;
4043;SDS011;2036;51.578;7.108;2023-10-08T14:27:53;7.40;;;1.50;;
4043;SDS011;2036;51.578;7.108;2023-10-08T14:30:29;7.27;;;1.80;;
4043;SDS011;2036;51.578;7.108;2023-10-08T14:33:00;3.97;;;1.77;;
4043;SDS011;2036;51.578;7.108;2023-10-08T14:35:28;4.67;;;1.80;;
4043;SDS011;2036;51.578;7.108;2023-10-08T14:38:13;5.77;;;2.17;;
4043;SDS011;2036;51.578;7.108;2023-10-08T14:49:17;7.30;;;1.70;;
4043;SDS011;2036;51.578;7.108;2023-10-08T14:51:43;2.97;;;1.47;;
4043;SDS011;2036;51.578;7.108;2023-10-08T14:54:13;3.90;;;1.80;;
4043;SDS011;2036;51.578;7.108;2023-10-08T14:56:39;8.93;;;1.80;;
4043;SDS011;2036;51.578;7.108;2023-10-08T14:59:05;6.57;;;1.50;;
4043;SDS011;2036;51.578;7.108;2023-10-08T15:01:31;13.07;;;1.70;;
4043;SDS011;2036;51.578;7.108;2023-10-08T15:04:00;6.93;;;1.97;;
4043;SDS011;2036;51.578;7.108;2023-10-08T15:06:29;3.83;;;2.00;;
4043;SDS011;2036;51.578;7.108;2023-10-08T15:08:57;4.70;;;1.50;;
4043;SDS011;2036;51.578;7.108;2023-10-08T15:11:23;7.03;;;1.70;;
4043;SDS011;2036;51.578;7.108;2023-10-08T15:13:51;5.77;;;1.77;;
4043;SDS011;2036;51.578;7.108;2023-10-08T15:16:19;6.67;;;1.70;;
4043;SDS011;2036;51.578;7.108;2023-10-08T15:18:48;4.37;;;1.50;;
4043;SDS011;2036;51.578;7.108;2023-10-08T15:21:16;4.70;;;1.83;;
4043;SDS011;2036;51.578;7.108;2023-10-08T15:23:43;4.60;;;1.73;;
4043;SDS011;2036;51.578;7.108;2023-10-08T15:26:10;4.30;;;1.60;;
4043;SDS011;2036;51.578;7.108;2023-10-08T15:28:37;9.30;;;2.40;;
4043;SDS011;2036;51.578;7.108;2023-10-08T15:31:04;6.50;;;2.80;;
4043;SDS011;2036;51.578;7.108;2023-10-08T15:33:32;3.60;;;1.77;;
4043;SDS011;2036;51.578;7.108;2023-10-08T15:35:57;4.77;;;2.03;;
4043;SDS011;2036;51.578;7.108;2023-10-08T15:38:25;4.37;;;2.00;;
4043;SDS011;2036;51.578;7.108;2023-10-08T15:40:51;7.83;;;2.10;;
4043;SDS011;2036;51.578;7.108;2023-10-08T15:43:17;11.50;;;2.60;;
4043;SDS011;2036;51.578;7.108;2023-10-08T15:45:43;12.73;;;2.47;;
4043;SDS011;2036;51.578;7.108;2023-10-08T15:48:10;4.93;;;2.20;;
4043;SDS011;2036;51.578;7.108;2023-10-08T15:53:25;6.90;;;2.80;;
4043;SDS011;2036;51.578;7.108;2023-10-08T15:55:51;6.53;;;2.57;;
4043;SDS011;2036;51.578;7.108;2023-10-08T15:58:17;3.90;;;2.30;;
4043;SDS011;2036;51.578;7.108;2023-10-08T16:00:43;4.00;;;2.03;;
4043;SDS011;2036;51.578;7.108;2023-10-08T16:03:09;7.23;;;3.10;;
4043;SDS011;2036;51.578;7.108;2023-10-08T16:05:35;8.80;;;3.33;;
4043;SDS011;2036;51.578;7.108;2023-10-08T16:08:01;5.87;;;2.50;;
4043;SDS011;2036;51.578;7.108;2023-10-08T16:10:27;9.67;;;2.77;;
4043;SDS011;2036;51.578;7.108;2023-10-08T16:12:53;7.80;;;2.43;;
4043;SDS011;2036;51.578;7.108;2023-10-08T16:15:21;7.47;;;2.40;;
4043;SDS011;2036;51.578;7.108;2023-10-08T16:17:47;5.13;;;2.07;;
4043;SDS011;2036;51.578;7.108;2023-10-08T16:20:14;6.23;;;2.60;;
4043;SDS011;2036;51.578;7.108;2023-10-08T16:22:44;5.10;;;2.60;;
4043;SDS011;2036;51.578;7.108;2023-10-08T16:25:12;9.33;;;2.20;;
4043;SDS011;2036;51.578;7.108;2023-10-08T16:27:42;6.13;;;2.17;;
4043;SDS011;2036;51.578;7.108;2023-10-08T16:36:12;6.23;;;2.70;;
4043;SDS011;2036;51.578;7.108;2023-10-08T16:38:38;8.20;;;3.83;;
4043;SDS011;2036;51.578;7.108;2023-10-08T16:43:35;9.30;;;3.43;;
4043;SDS011;2036;51.578;7.108;2023-10-08T16:46:01;5.67;;;2.60;;
4043;SDS011;2036;51.578;7.108;2023-10-08T16:48:30;5.47;;;2.57;;
4043;SDS011;2036;51.578;7.108;2023-10-08T16:50:58;7.90;;;3.50;;
4043;SDS011;2036;51.578;7.108;2023-10-08T16:53:26;6.60;;;2.73;;
4043;SDS011;2036;51.578;7.108;2023-10-08T17:00:48;9.13;;;3.20;;
4043;SDS011;2036;51.578;7.108;2023-10-08T17:03:16;7.20;;;3.57;;
4043;SDS011;2036;51.578;7.108;2023-10-08T17:05:46;9.20;;;3.93;;
4043;SDS011;2036;51.578;7.108;2023-10-08T17:08:13;9.57;;;4.10;;
4043;SDS011;2036;51.578;7.108;2023-10-08T17:10:39;12.57;;;4.40;;
4043;SDS011;2036;51.578;7.108;2023-10-08T17:13:05;6.90;;;3.70;;
4043;SDS011;2036;51.578;7.108;2023-10-08T17:15:33;11.67;;;4.10;;
4043;SDS011;2036;51.578;7.108;2023-10-08T17:17:59;10.00;;;3.90;;
4043;SDS011;2036;51.578;7.108;2023-10-08T17:21:53;6.80;;;3.70;;
4043;SDS011;2036;51.578;7.108;2023-10-08T17:24:18;10.23;;;3.90;;
4043;SDS011;2036;51.578;7.108;2023-10-08T17:37:47;11.30;;;3.73;;
4043;SDS011;2036;51.578;7.108;2023-10-08T17:40:13;6.07;;;4.13;;
4043;SDS011;2036;51.578;7.108;2023-10-08T17:42:39;8.50;;;4.03;;
4043;SDS011;2036;51.578;7.108;2023-10-08T17:46:55;15.10;;;3.73;;
4043;SDS011;2036;51.578;7.108;2023-10-08T17:49:21;9.30;;;3.90;;
4043;SDS011;2036;51.578;7.108;2023-10-08T17:51:47;8.40;;;4.17;;
4043;SDS011;2036;51.578;7.108;2023-10-08T17:54:13;7.17;;;3.70;;
4043;SDS011;2036;51.578;7.108;2023-10-08T17:56:40;8.27;;;3.77;;
4043;SDS011;2036;51.578;7.108;2023-10-08T17:59:06;7.20;;;3.60;;
4043;SDS011;2036;51.578;7.108;2023-10-08T18:01:35;9.23;;;3.70;;
4043;SDS011;2036;51.578;7.108;2023-10-08T18:04:04;11.20;;;4.20;;
4043;SDS011;2036;51.578;7.108;2023-10-08T18:06:35;11.37;;;4.27;;
4043;SDS011;2036;51.578;7.108;2023-10-08T18:09:01;10.10;;;4.13;;
4043;SDS011;2036;51.578;7.108;2023-10-08T18:11:34;7.47;;;4.37;;
4043;SDS011;2036;51.578;7.108;2023-10-08T18:14:07;7.57;;;4.30;;
4043;SDS011;2036;51.578;7.108;2023-10-08T18:16:38;12.27;;;4.30;;
4043;SDS011;2036;51.578;7.108;2023-10-08T18:19:10;11.67;;;4.67;;
4043;SDS011;2036;51.578;7.108;2023-10-08T18:21:39;9.87;;;4.37;;
4043;SDS011;2036;51.578;7.108;2023-10-08T18:24:07;11.97;;;4.53;;
4043;SDS011;2036;51.578;7.108;2023-10-08T18:26:37;8.07;;;4.80;;
4043;SDS011;2036;51.578;7.108;2023-10-08T18:29:07;6.37;;;4.27;;
4043;SDS011;2036;51.578;7.108;2023-10-08T18:31:38;8.13;;;4.70;;
4043;SDS011;2036;51.578;7.108;2023-10-08T18:34:05;8.20;;;4.23;;
4043;SDS011;2036;51.578;7.108;2023-10-08T18:36:31;6.20;;;4.33;;
4043;SDS011;2036;51.578;7.108;2023-10-08T18:38:56;7.60;;;4.93;;
4043;SDS011;2036;51.578;7.108;2023-10-08T18:41:23;10.83;;;5.50;;
4043;SDS011;2036;51.578;7.108;2023-10-08T18:43:52;14.07;;;4.60;;
4043;SDS011;2036;51.578;7.108;2023-10-08T18:46:18;9.07;;;4.50;;
4043;SDS011;2036;51.578;7.108;2023-10-08T18:48:45;11.17;;;5.37;;
4043;SDS011;2036;51.578;7.108;2023-10-08T18:51:12;10.00;;;5.30;;
4043;SDS011;2036;51.578;7.108;2023-10-08T18:53:43;11.57;;;5.73;;
4043;SDS011;2036;51.578;7.108;2023-10-08T18:56:11;10.63;;;5.73;;
4043;SDS011;2036;51.578;7.108;2023-10-08T18:58:46;11.83;;;5.40;;
4043;SDS011;2036;51.578;7.108;2023-10-08T19:01:12;11.40;;;5.97;;
4043;SDS011;2036;51.578;7.108;2023-10-08T19:03:40;16.40;;;5.97;;
4043;SDS011;2036;51.578;7.108;2023-10-08T19:06:09;12.77;;;6.10;;
4043;SDS011;2036;51.578;7.108;2023-10-08T19:12:26;13.90;;;6.20;;
4043;SDS011;2036;51.578;7.108;2023-10-08T19:14:52;11.57;;;6.27;;
4043;SDS011;2036;51.578;7.108;2023-10-08T19:17:17;11.40;;;6.90;;
4043;SDS011;2036;51.578;7.108;2023-10-08T19:19:43;12.27;;;6.50;;
4043;SDS011;2036;51.578;7.108;2023-10-08T19:22:09;11.53;;;5.90;;
4043;SDS011;2036;51.578;7.108;2023-10-08T19:24:35;13.47;;;6.83;;
4043;SDS011;2036;51.578;7.108;2023-10-08T19:30:35;12.90;;;7.20;;
4043;SDS011;2036;51.578;7.108;2023-10-08T19:33:01;15.70;;;7.40;;
4043;SDS011;2036;51.578;7.108;2023-10-08T19:35:28;12.23;;;7.07;;
4043;SDS011;2036;51.578;7.108;2023-10-08T19:37:56;12.47;;;6.67;;
4043;SDS011;2036;51.578;7.108;2023-10-08T19:40:23;11.70;;;6.50;;
4043;SDS011;2036;51.578;7.108;2023-10-08T19:42:49;10.60;;;6.23;;
4043;SDS011;2036;51.578;7.108;2023-10-08T19:45:15;17.60;;;7.60;;
4043;SDS011;2036;51.578;7.108;2023-10-08T19:47:45;15.73;;;6.80;;
4043;SDS011;2036;51.578;7.108;2023-10-08T19:50:12;11.43;;;6.40;;
4043;SDS011;2036;51.578;7.108;2023-10-08T19:52:45;14.30;;;6.17;;
4043;SDS011;2036;51.578;7.108;2023-10-08T19:55:14;13.10;;;7.03;;
4043;SDS011;2036;51.578;7.108;2023-10-08T19:57:40;12.90;;;6.70;;
4043;SDS011;2036;51.578;7.108;2023-10-08T20:00:07;12.33;;;6.70;;
4043;SDS011;2036;51.578;7.108;2023-10-08T20:02:38;15.00;;;8.37;;
4043;SDS011;2036;51.578;7.108;2023-10-08T20:05:12;12.30;;;6.17;;
4043;SDS011;2036;51.578;7.108;2023-10-08T20:07:39;12.23;;;7.00;;
4043;SDS011;2036;51.578;7.108;2023-10-08T20:10:08;13.50;;;6.93;;
4043;SDS011;2036;51.578;7.108;2023-10-08T20:12:40;10.77;;;6.73;;
4043;SDS011;2036;51.578;7.108;2023-10-08T20:15:11;13.37;;;6.97;;
4043;SDS011;2036;51.578;7.108;2023-10-08T20:17:38;10.93;;;7.17;;
4043;SDS011;2036;51.578;7.108;2023-10-08T20:20:07;12.70;;;6.20;;
4043;SDS011;2036;51.578;7.108;2023-10-08T20:22:40;11.33;;;6.70;;
4043;SDS011;2036;51.578;7.108;2023-10-08T20:25:10;9.80;;;6.10;;
4043;SDS011;2036;51.578;7.108;2023-10-08T20:27:39;14.90;;;7.00;;
4043;SDS011;2036;51.578;7.108;2023-10-08T20:30:09;15.03;;;6.20;;
4043;SDS011;2036;51.578;7.108;2023-10-08T20:32:38;13.73;;;6.87;;
